Time;durP1;ratioP1;P1;durP2;ratioP2;P2;SDS_P1;SDS_P2;PMS_P1;PMS_P2;Temp;Humidity;BMP_temperature;BMP_pressure;BME280_temperature;BME280_humidity;BME280_pressure;Samples;Min_cycle;Max_cycle;Signal;HPM_P1;HPM_P2
2022/03/22 00:02:04;;;;;;;0.00;0.00;;;10.70;99.90;;;;;;5054483;28;20395;-74
2022/03/22 00:04:30;;;;;;;0.80;0.43;;;10.70;99.90;;;;;;5054538;28;20028;-76
2022/03/22 00:06:55;;;;;;;0.45;0.45;;;10.70;99.90;;;;;;5054651;28;20021;-75
2022/03/22 00:09:21;;;;;;;5.88;1.80;;;10.60;99.90;;;;;;5054065;28;20103;-76
2022/03/22 00:11:50;;;;;;;0.73;0.73;;;10.50;99.90;;;;;;5053967;28;20017;-76
2022/03/22 00:14:16;;;;;;;0.45;0.45;;;10.50;99.90;;;;;;5054157;28;20021;-75
2022/03/22 00:16:42;;;;;;;2.50;0.50;;;10.40;99.90;;;;;;5053532;28;20611;-75
2022/03/22 00:19:07;;;;;;;0.82;0.80;;;10.40;99.90;;;;;;5054180;28;20070;-75
2022/03/22 00:21:35;;;;;;;0.00;0.00;;;10.40;99.90;;;;;;5054115;28;20024;-76
2022/03/22 00:24:01;;;;;;;0.55;0.35;;;10.40;99.90;;;;;;5053953;28;20031;-75
2022/03/22 00:26:27;;;;;;;0.52;0.30;;;10.30;99.90;;;;;;5041169;28;20025;-74
2022/03/22 00:28:53;;;;;;;0.10;0.10;;;10.20;99.90;;;;;;5032982;28;20504;-75
2022/03/22 00:31:19;;;;;;;0.30;0.17;;;10.10;99.90;;;;;;5034219;28;20148;-74
2022/03/22 00:33:45;;;;;;;0.80;0.32;;;10.10;99.90;;;;;;5034054;28;20057;-75
2022/03/22 00:36:10;;;;;;;1.13;1.02;;;10.10;99.90;;;;;;5033894;28;20022;-75
2022/03/22 00:38:36;;;;;;;0.30;0.30;;;10.00;99.90;;;;;;5052074;28;20040;-75
2022/03/22 00:41:02;;;;;;;2.17;0.88;;;10.00;99.90;;;;;;5053762;28;20027;-75
2022/03/22 00:43:28;;;;;;;0.13;0.13;;;10.00;99.90;;;;;;5053768;28;20127;-75
2022/03/22 00:45:55;;;;;;;0.20;0.20;;;9.90;99.90;;;;;;5053805;28;20462;-75
2022/03/22 00:48:21;;;;;;;0.80;0.60;;;9.90;99.90;;;;;;5053632;28;20112;-75
2022/03/22 00:50:47;;;;;;;0.10;0.10;;;9.80;99.90;;;;;;5053279;28;20453;-75
2022/03/22 00:53:15;;;;;;;1.05;0.75;;;9.80;99.90;;;;;;5053164;28;20462;-75
2022/03/22 00:55:41;;;;;;;0.85;0.50;;;9.70;99.90;;;;;;5053690;28;20479;-75
2022/03/22 00:58:07;;;;;;;1.63;1.02;;;9.70;99.90;;;;;;5053569;28;20029;-74
2022/03/22 01:00:34;;;;;;;11.52;1.08;;;9.60;99.90;;;;;;5053572;28;20021;-75
2022/03/22 01:03:02;;;;;;;3.95;0.88;;;9.60;99.90;;;;;;5052652;28;20036;-75
2022/03/22 01:05:28;;;;;;;0.10;0.10;;;9.60;99.90;;;;;;5053761;28;20388;-75
2022/03/22 01:08:01;;;;;;;1.45;1.35;;;9.50;99.90;;;;;;5053321;28;20063;-74
2022/03/22 01:10:28;;;;;;;0.68;0.25;;;9.40;99.90;;;;;;5053077;28;20373;-74
2022/03/22 01:12:54;;;;;;;0.30;0.30;;;9.30;99.90;;;;;;5052371;28;20120;-75
2022/03/22 01:15:32;;;;;;;0.73;0.73;;;9.30;99.90;;;;;;5053148;28;20036;-75
2022/03/22 01:17:59;;;;;;;0.20;0.20;;;9.30;99.90;;;;;;5052299;28;20032;-74
2022/03/22 01:20:26;;;;;;;0.22;0.22;;;9.20;99.90;;;;;;5052942;28;20032;-75
2022/03/22 01:22:53;;;;;;;0.30;0.30;;;9.10;99.90;;;;;;5053071;28;20021;-74
2022/03/22 01:25:23;;;;;;;0.85;0.55;;;9.10;99.90;;;;;;5052922;28;20029;-75
2022/03/22 01:27:49;;;;;;;0.22;0.22;;;9.10;99.90;;;;;;5053053;28;20037;-75
2022/03/22 01:30:19;;;;;;;0.00;0.00;;;9.10;99.90;;;;;;5053064;28;20549;-75
2022/03/22 01:32:50;;;;;;;0.00;0.00;;;9.10;99.90;;;;;;5052759;28;20113;-75
2022/03/22 01:35:19;;;;;;;0.77;0.35;;;9.00;99.90;;;;;;5053250;28;20056;-75
2022/03/22 01:37:47;;;;;;;0.55;0.50;;;9.00;99.90;;;;;;5052290;28;20036;-74
2022/03/22 01:40:13;;;;;;;0.30;0.30;;;9.00;99.90;;;;;;5052482;28;20075;-75
2022/03/22 01:42:39;;;;;;;0.10;0.10;;;8.90;99.90;;;;;;5053022;28;20125;-74
2022/03/22 01:45:10;;;;;;;1.60;0.17;;;8.90;99.90;;;;;;5051410;28;20115;-75
2022/03/22 01:47:37;;;;;;;0.20;0.20;;;8.80;99.90;;;;;;5052634;28;20045;-75
2022/03/22 01:50:05;;;;;;;2.17;0.28;;;8.80;99.90;;;;;;5047194;28;20053;-75
2022/03/22 01:52:34;;;;;;;0.63;0.52;;;8.70;99.90;;;;;;5051104;28;20037;-75
2022/03/22 01:55:01;;;;;;;0.00;0.00;;;8.70;99.90;;;;;;5051466;28;20017;-75
2022/03/22 01:57:30;;;;;;;0.63;0.20;;;8.70;99.90;;;;;;5052535;28;20022;-74
2022/03/22 01:59:56;;;;;;;0.50;0.50;;;8.70;99.90;;;;;;5052628;28;20025;-75
2022/03/22 02:08:00;;;;;;;0.70;0.55;;;8.60;99.90;;;;;;5052092;28;20086;-75
2022/03/22 02:10:26;;;;;;;0.35;0.35;;;8.50;99.90;;;;;;5052473;28;20037;-74
2022/03/22 02:12:52;;;;;;;0.13;0.13;;;8.50;99.90;;;;;;5051645;28;20021;-75
2022/03/22 02:15:19;;;;;;;0.50;0.28;;;8.50;99.90;;;;;;5052579;28;20100;-74
2022/03/22 02:17:46;;;;;;;0.00;0.00;;;8.50;99.90;;;;;;5051633;28;20020;-75
2022/03/22 02:20:13;;;;;;;0.30;0.22;;;8.60;99.90;;;;;;5052324;28;20108;-74
2022/03/22 02:22:59;;;;;;;1.13;0.70;;;8.50;99.90;;;;;;5052762;28;20025;-75
2022/03/22 02:25:25;;;;;;;0.30;0.30;;;8.50;99.90;;;;;;5052144;28;20099;-75
2022/03/22 02:27:54;;;;;;;0.47;0.47;;;8.40;99.90;;;;;;5052318;28;20511;-74
2022/03/22 02:30:20;;;;;;;5.18;0.70;;;8.50;99.90;;;;;;5052045;28;20033;-76
2022/03/22 02:32:50;;;;;;;0.40;0.40;;;8.50;99.90;;;;;;5052254;28;20017;-75
2022/03/22 02:35:16;;;;;;;0.10;0.10;;;8.50;99.90;;;;;;5052725;28;20032;-75
2022/03/22 02:37:42;;;;;;;2.08;0.82;;;8.40;99.90;;;;;;5052140;28;20026;-76
2022/03/22 02:40:08;;;;;;;0.08;0.08;;;8.50;99.90;;;;;;5052086;28;20021;-74
2022/03/22 02:42:34;;;;;;;0.10;0.10;;;8.40;99.90;;;;;;5052076;28;20021;-75
2022/03/22 02:44:59;;;;;;;0.70;0.55;;;8.40;99.90;;;;;;5052256;28;20090;-74
2022/03/22 02:47:25;;;;;;;0.28;0.28;;;8.40;99.90;;;;;;5051587;28;20103;-74
2022/03/22 02:49:51;;;;;;;2.72;0.50;;;8.40;99.90;;;;;;5048695;28;20400;-74
2022/03/22 02:52:16;;;;;;;0.10;0.10;;;8.40;99.90;;;;;;5049352;28;20369;-75
2022/03/22 02:54:42;;;;;;;0.22;0.22;;;8.30;99.90;;;;;;5055299;28;20025;-74
2022/03/22 02:57:08;;;;;;;0.17;0.17;;;8.30;99.90;;;;;;5055818;28;20103;-75
2022/03/22 02:59:33;;;;;;;0.22;0.22;;;8.20;99.90;;;;;;5055787;28;20082;-75
2022/03/22 03:02:00;;;;;;;0.00;0.00;;;8.20;99.90;;;;;;5055400;28;20024;-75
2022/03/22 03:04:26;;;;;;;2.00;0.80;;;8.20;99.90;;;;;;5055711;28;20419;-75
2022/03/22 03:06:52;;;;;;;0.15;0.15;;;8.10;99.90;;;;;;5054170;28;20112;-75
2022/03/22 03:09:17;;;;;;;0.75;0.75;;;8.00;99.90;;;;;;5055315;28;20057;-75
2022/03/22 03:11:43;;;;;;;0.47;0.32;;;7.90;99.90;;;;;;5055209;28;20044;-75
2022/03/22 03:16:53;;;;;;;0.00;0.00;;;7.80;99.90;;;;;;5055042;28;20514;-75
2022/03/22 03:19:19;;;;;;;0.45;0.45;;;7.80;99.90;;;;;;5054765;28;20048;-76
2022/03/22 03:21:44;;;;;;;0.20;0.20;;;7.80;99.90;;;;;;5054858;28;20099;-76
2022/03/22 03:24:10;;;;;;;0.00;0.00;;;7.80;99.90;;;;;;5055404;28;20037;-76
2022/03/22 03:26:36;;;;;;;0.00;0.00;;;7.70;99.90;;;;;;5055076;28;20101;-75
2022/03/22 03:29:01;;;;;;;1.80;0.80;;;7.70;99.90;;;;;;5054915;28;20033;-75
2022/03/22 03:31:27;;;;;;;2.83;1.95;;;7.60;99.90;;;;;;5055160;28;20025;-75
2022/03/22 03:33:54;;;;;;;3.40;2.05;;;7.50;99.90;;;;;;5055098;28;20041;-74
2022/03/22 03:36:20;;;;;;;0.15;0.15;;;7.50;99.90;;;;;;5055416;28;20024;-75
2022/03/22 03:38:46;;;;;;;0.10;0.10;;;7.50;99.90;;;;;;5054989;28;20124;-75
2022/03/22 03:43:57;;;;;;;1.60;1.08;;;7.40;99.90;;;;;;5054993;28;20537;-75
2022/03/22 03:49:08;;;;;;;0.20;0.17;;;7.20;99.90;;;;;;5054571;28;20139;-75
2022/03/22 03:51:35;;;;;;;0.00;0.00;;;7.20;99.90;;;;;;5054360;28;20112;-74
2022/03/22 03:54:02;;;;;;;0.52;0.52;;;7.10;99.90;;;;;;5053156;28;20385;-75
2022/03/22 03:56:28;;;;;;;14.07;2.75;;;7.10;99.90;;;;;;5053925;28;20025;-74
2022/03/22 03:58:56;;;;;;;1.88;1.02;;;7.10;99.90;;;;;;5054392;28;20507;-76
2022/03/22 04:01:22;;;;;;;0.28;0.28;;;7.10;99.90;;;;;;5054406;28;20044;-75
2022/03/22 04:03:48;;;;;;;0.00;0.00;;;7.10;99.90;;;;;;5054694;28;20083;-74
2022/03/22 04:06:14;;;;;;;0.40;0.40;;;7.00;99.90;;;;;;5054467;28;20020;-75
2022/03/22 04:08:39;;;;;;;0.10;0.10;;;7.00;99.90;;;;;;5054161;28;20051;-75
2022/03/22 04:11:05;;;;;;;0.10;0.10;;;7.00;99.90;;;;;;5054129;28;20028;-74
2022/03/22 04:13:31;;;;;;;0.20;0.08;;;7.00;99.90;;;;;;5053494;28;20540;-74
2022/03/22 04:15:56;;;;;;;1.48;1.17;;;7.10;99.90;;;;;;5054154;28;20484;-75
2022/03/22 04:18:22;;;;;;;0.80;0.80;;;7.10;99.90;;;;;;5053256;28;20021;-75
2022/03/22 04:20:49;;;;;;;0.40;0.40;;;7.00;99.90;;;;;;5054287;28;20514;-75
2022/03/22 04:23:15;;;;;;;0.30;0.30;;;7.00;99.90;;;;;;5054168;28;20108;-75
2022/03/22 04:25:41;;;;;;;0.25;0.25;;;7.10;99.90;;;;;;5053761;28;20060;-74
2022/03/22 04:33:36;;;;;;;0.77;0.77;;;7.40;99.90;;;;;;5053984;28;20028;-75
2022/03/22 04:36:02;;;;;;;0.00;0.00;;;7.60;99.90;;;;;;5053835;28;20120;-75
2022/03/22 04:38:28;;;;;;;0.55;0.55;;;7.70;99.90;;;;;;5053697;28;20017;-75
2022/03/22 04:40:53;;;;;;;1.88;1.13;;;7.70;99.90;;;;;;5053573;28;20032;-75
2022/03/22 04:43:19;;;;;;;0.13;0.13;;;7.70;99.90;;;;;;5053702;28;20052;-75
2022/03/22 04:45:45;;;;;;;0.30;0.25;;;7.60;99.90;;;;;;5053765;28;20057;-74
2022/03/22 04:48:11;;;;;;;3.78;0.98;;;7.50;99.90;;;;;;5053718;28;20123;-74
2022/03/22 04:50:37;;;;;;;2.92;1.05;;;7.30;99.90;;;;;;5046678;28;20456;-75
2022/03/22 04:58:31;;;;;;;0.52;0.52;;;6.80;99.90;;;;;;5053448;28;20059;-75
2022/03/22 05:00:56;;;;;;;1.75;0.40;;;6.60;99.90;;;;;;5053388;28;20423;-74
2022/03/22 05:03:22;;;;;;;0.10;0.10;;;6.50;99.90;;;;;;5053287;28;20044;-74
2022/03/22 05:08:32;;;;;;;0.52;0.45;;;6.40;99.90;;;;;;5053173;28;20074;-75
2022/03/22 05:10:59;;;;;;;2.28;1.17;;;6.40;99.90;;;;;;5052820;28;20475;-74
2022/03/22 05:13:24;;;;;;;0.03;0.03;;;6.40;99.90;;;;;;5052913;28;20029;-75
2022/03/22 05:15:51;;;;;;;0.17;0.17;;;6.40;99.90;;;;;;5052700;28;20017;-75
2022/03/22 05:18:17;;;;;;;0.35;0.35;;;6.40;99.90;;;;;;5052321;28;20025;-75
2022/03/22 05:20:43;;;;;;;1.95;0.50;;;6.40;99.90;;;;;;5053038;28;20027;-75
2022/03/22 05:23:09;;;;;;;1.52;0.75;;;6.30;99.90;;;;;;5052970;28;20033;-74
2022/03/22 05:25:35;;;;;;;0.30;0.30;;;6.30;99.90;;;;;;5052833;28;20032;-75
2022/03/22 05:28:02;;;;;;;0.60;0.60;;;6.30;99.90;;;;;;5052798;28;20059;-74
2022/03/22 05:30:28;;;;;;;41.60;1.75;;;6.30;99.90;;;;;;5053038;28;20124;-74
2022/03/22 05:32:54;;;;;;;0.00;0.00;;;6.40;99.90;;;;;;5051334;28;20037;-75
2022/03/22 05:35:20;;;;;;;0.90;0.90;;;6.40;99.90;;;;;;5052852;28;20119;-75
2022/03/22 05:37:45;;;;;;;0.40;0.40;;;6.40;99.90;;;;;;5052926;28;20033;-75
2022/03/22 05:40:12;;;;;;;0.10;0.10;;;6.30;99.90;;;;;;5052692;28;20084;-76
2022/03/22 05:42:40;;;;;;;0.08;0.08;;;6.30;99.90;;;;;;5052068;28;20476;-75
2022/03/22 05:45:10;;;;;;;0.90;0.90;;;6.30;99.90;;;;;;5052747;28;20021;-73
2022/03/22 05:47:36;;;;;;;0.28;0.28;;;6.30;99.90;;;;;;5052808;28;20031;-74
2022/03/22 05:50:02;;;;;;;0.00;0.00;;;6.30;99.90;;;;;;5048252;28;20017;-74
2022/03/22 05:52:28;;;;;;;0.55;0.55;;;6.30;99.90;;;;;;5050706;28;20129;-74
2022/03/22 05:54:53;;;;;;;0.95;0.90;;;6.20;99.90;;;;;;5052151;28;20099;-74
2022/03/22 05:57:19;;;;;;;0.25;0.20;;;6.30;99.90;;;;;;5050320;28;20037;-74
2022/03/22 05:59:44;;;;;;;0.25;0.25;;;6.20;99.90;;;;;;5052145;28;20396;-74
2022/03/22 06:02:10;;;;;;;0.63;0.63;;;6.20;99.90;;;;;;5052454;28;20017;-74
2022/03/22 06:04:36;;;;;;;0.25;0.15;;;6.20;99.90;;;;;;5052597;28;20063;-74
2022/03/22 06:07:02;;;;;;;0.00;0.00;;;6.20;99.90;;;;;;5052315;28;20075;-74
2022/03/22 06:09:28;;;;;;;5.68;1.55;;;6.30;99.90;;;;;;5051704;28;20396;-74
2022/03/22 06:11:53;;;;;;;0.20;0.20;;;6.30;99.90;;;;;;5052017;28;20022;-74
2022/03/22 06:14:19;;;;;;;0.70;0.63;;;6.30;99.90;;;;;;5052336;28;20480;-74
2022/03/22 06:16:45;;;;;;;1.35;1.23;;;6.30;99.90;;;;;;5051919;28;20433;-74
2022/03/22 06:19:10;;;;;;;1.33;0.70;;;6.30;99.90;;;;;;5051240;28;20108;-74
2022/03/22 06:21:36;;;;;;;3.30;1.58;;;6.30;99.90;;;;;;5052606;28;20472;-74
2022/03/22 06:24:02;;;;;;;0.65;0.38;;;6.30;99.90;;;;;;5052131;28;20025;-74
2022/03/22 06:26:28;;;;;;;0.30;0.30;;;6.30;99.90;;;;;;5051993;28;20025;-74
2022/03/22 06:28:53;;;;;;;2.45;1.65;;;6.40;99.90;;;;;;5055443;28;20055;-74
2022/03/22 06:31:19;;;;;;;0.13;0.13;;;6.40;99.90;;;;;;5052340;28;20060;-74
2022/03/22 06:33:44;;;;;;;0.30;0.20;;;6.40;99.90;;;;;;5040257;28;20538;-74
2022/03/22 06:36:10;;;;;;;1.85;0.65;;;6.40;99.90;;;;;;5054666;28;20029;-74
2022/03/22 06:38:36;;;;;;;0.32;0.32;;;6.50;99.90;;;;;;5055402;28;20116;-74
2022/03/22 06:41:02;;;;;;;0.98;0.65;;;6.60;99.90;;;;;;5054827;28;20025;-74
2022/03/22 06:43:29;;;;;;;0.95;0.77;;;6.60;99.90;;;;;;5055145;28;20064;-74
2022/03/22 06:45:55;;;;;;;0.22;0.22;;;6.70;99.90;;;;;;5054912;28;20480;-74
2022/03/22 06:48:22;;;;;;;0.00;0.00;;;6.80;99.90;;;;;;5055339;28;20457;-74
2022/03/22 06:50:49;;;;;;;0.20;0.20;;;6.90;99.90;;;;;;5048483;28;20013;-74
2022/03/22 06:53:15;;;;;;;0.00;0.00;;;7.00;99.90;;;;;;5055027;28;20028;-74
2022/03/22 06:55:41;;;;;;;9.40;2.00;;;7.10;99.90;;;;;;5055462;28;20025;-74
2022/03/22 06:58:07;;;;;;;0.17;0.17;;;7.10;99.90;;;;;;5055226;28;20017;-74
2022/03/22 07:00:34;;;;;;;15.23;2.08;;;7.20;99.90;;;;;;5052052;28;20024;-74
2022/03/22 07:03:01;;;;;;;0.65;0.32;;;7.30;99.90;;;;;;5049892;28;20082;-75
2022/03/22 07:05:28;;;;;;;1.48;0.57;;;7.40;99.90;;;;;;5053813;28;20032;-74
2022/03/22 07:07:54;;;;;;;1.50;1.40;;;7.50;99.90;;;;;;5053893;28;20032;-74
2022/03/22 07:10:19;;;;;;;0.65;0.52;;;7.60;99.90;;;;;;5053066;28;20032;-74
2022/03/22 07:12:48;;;;;;;2.72;0.22;;;7.70;99.90;;;;;;5052840;28;20563;-74
2022/03/22 07:15:13;;;;;;;0.30;0.30;;;7.80;99.90;;;;;;5053195;28;20013;-75
2022/03/22 07:17:40;;;;;;;0.95;0.95;;;7.90;99.90;;;;;;5052684;28;20029;-75
2022/03/22 07:20:07;;;;;;;1.17;1.08;;;8.00;99.90;;;;;;5053115;28;20479;-74
2022/03/22 07:22:32;;;;;;;0.85;0.85;;;8.10;99.90;;;;;;5052796;28;20483;-74
2022/03/22 07:24:58;;;;;;;4.13;1.13;;;8.20;99.90;;;;;;5046657;28;20112;-75
2022/03/22 07:27:24;;;;;;;0.20;0.20;;;8.40;99.90;;;;;;5052907;28;20534;-74
2022/03/22 07:29:51;;;;;;;2.25;1.20;;;8.40;99.90;;;;;;5042408;28;20029;-75
2022/03/22 07:32:17;;;;;;;0.70;0.43;;;8.60;99.90;;;;;;5047555;28;20044;-74
2022/03/22 07:34:43;;;;;;;0.25;0.25;;;8.70;99.90;;;;;;5049370;28;20025;-74
2022/03/22 07:37:09;;;;;;;0.98;0.32;;;8.80;99.90;;;;;;5047260;28;20088;-74
2022/03/22 07:39:35;;;;;;;1.05;0.65;;;9.10;99.90;;;;;;5048424;28;20488;-74
2022/03/22 07:42:01;;;;;;;0.68;0.57;;;10.20;99.90;;;;;;5053569;28;20021;-75
2022/03/22 07:44:27;;;;;;;2.50;1.20;;;11.80;99.90;;;;;;5053375;28;20551;-74
2022/03/22 07:46:53;;;;;;;0.88;0.75;;;12.10;99.90;;;;;;5037046;28;20029;-74
2022/03/22 07:54:47;;;;;;;0.28;0.22;;;10.30;99.90;;;;;;5045227;28;20071;-74
2022/03/22 07:57:12;;;;;;;1.88;0.73;;;10.30;99.90;;;;;;5053039;28;20080;-74
2022/03/22 07:59:38;;;;;;;1.75;1.27;;;10.40;99.90;;;;;;5051813;28;20051;-74
2022/03/22 08:02:04;;;;;;;0.57;0.20;;;10.50;99.90;;;;;;5051793;28;20056;-74
2022/03/22 08:04:30;;;;;;;0.50;0.50;;;10.70;99.90;;;;;;5042200;28;20032;-75
2022/03/22 08:06:56;;;;;;;0.10;0.10;;;11.00;99.90;;;;;;5044234;28;20029;-74
2022/03/22 08:09:22;;;;;;;2.72;0.90;;;12.50;99.90;;;;;;5039723;28;20099;-74
2022/03/22 08:11:49;;;;;;;31.15;1.85;;;14.60;98.70;;;;;;5042633;28;20087;-74
2022/03/22 08:14:15;;;;;;;2.17;1.00;;;15.70;96.90;;;;;;5041769;28;20021;-74
2022/03/22 08:16:42;;;;;;;1.13;1.05;;;16.40;95.80;;;;;;5042047;28;20033;-74
2022/03/22 08:19:07;;;;;;;0.63;0.50;;;16.80;95.10;;;;;;5049766;28;20032;-74
2022/03/22 08:21:34;;;;;;;1.02;0.30;;;17.00;94.80;;;;;;5051618;28;20021;-75
2022/03/22 08:24:00;;;;;;;6.10;0.85;;;17.00;95.60;;;;;;5045301;28;20026;-76
2022/03/22 08:26:26;;;;;;;1.35;0.77;;;17.80;94.50;;;;;;5051505;28;20017;-75
2022/03/22 08:28:52;;;;;;;3.67;1.23;;;18.20;93.80;;;;;;5045383;28;20057;-75
2022/03/22 08:31:18;;;;;;;3.22;1.70;;;16.90;94.10;;;;;;5049502;28;20055;-75
2022/03/22 08:33:44;;;;;;;0.60;0.45;;;14.90;96.70;;;;;;5047678;28;20041;-75
2022/03/22 08:36:09;;;;;;;8.68;0.75;;;13.80;98.30;;;;;;5051184;28;20522;-75
2022/03/22 08:38:35;;;;;;;0.73;0.73;;;14.30;98.30;;;;;;5051760;28;20048;-75
2022/03/22 08:41:01;;;;;;;0.30;0.30;;;16.10;96.70;;;;;;5046113;28;20072;-75
2022/03/22 08:43:27;;;;;;;4.68;1.02;;;16.70;95.20;;;;;;5035439;28;20080;-77
2022/03/22 08:45:56;;;;;;;2.25;0.60;;;17.10;95.10;;;;;;5052041;28;20067;-75
2022/03/22 08:48:23;;;;;;;1.88;0.90;;;18.20;94.30;;;;;;5052295;28;20159;-76
2022/03/22 08:50:50;;;;;;;2.80;1.42;;;19.20;93.50;;;;;;5040984;28;20021;-77
2022/03/22 08:53:17;;;;;;;1.23;1.13;;;19.70;92.60;;;;;;5051827;28;20029;-77
2022/03/22 08:55:47;;;;;;;1.23;0.57;;;19.50;92.90;;;;;;5044942;28;20028;-76
2022/03/22 08:58:13;;;;;;;1.88;1.27;;;18.60;92.70;;;;;;5032288;28;20022;-76
2022/03/22 09:00:40;;;;;;;5.05;0.82;;;18.80;93.10;;;;;;5039900;28;20032;-75
2022/03/22 09:03:08;;;;;;;5.47;0.70;;;18.70;93.40;;;;;;5031710;28;20159;-76
2022/03/22 09:08:18;;;;;;;2.95;1.30;;;19.00;92.40;;;;;;5044346;28;20091;-76
2022/03/22 09:10:46;;;;;;;7.68;0.47;;;18.40;92.80;;;;;;5045199;28;20472;-76
2022/03/22 09:13:13;;;;;;;0.75;0.73;;;18.70;92.90;;;;;;5041336;28;20057;-76
2022/03/22 09:15:39;;;;;;;1.00;0.60;;;19.00;92.80;;;;;;5040035;28;20429;-76
2022/03/22 09:18:12;;;;;;;1.00;0.90;;;19.80;91.80;;;;;;5044786;28;20024;-76
2022/03/22 09:20:38;;;;;;;3.65;1.27;;;18.90;92.20;;;;;;5037090;28;20026;-75
2022/03/22 09:23:04;;;;;;;4.03;1.92;;;18.60;92.70;;;;;;5030965;28;20028;-76
2022/03/22 09:25:30;;;;;;;2.13;1.58;;;18.30;92.80;;;;;;5042520;28;20032;-77
2022/03/22 09:27:56;;;;;;;1.35;0.80;;;17.90;93.80;;;;;;5038297;28;20033;-80
2022/03/22 09:30:22;;;;;;;3.13;0.75;;;18.00;93.00;;;;;;5050639;28;20025;-76
2022/03/22 09:32:48;;;;;;;4.60;0.70;;;17.50;94.00;;;;;;5060217;28;20025;-75
2022/03/22 09:35:19;;;;;;;0.90;0.70;;;17.20;93.70;;;;;;5056295;28;20448;-75
2022/03/22 09:37:46;;;;;;;4.47;1.05;;;17.10;94.30;;;;;;5050515;28;20028;-76
2022/03/22 09:40:13;;;;;;;1.17;0.70;;;18.20;94.00;;;;;;5044179;28;20072;-76
2022/03/22 09:42:43;;;;;;;10.60;1.05;;;18.10;93.40;;;;;;5048681;28;20151;-76
2022/03/22 09:45:10;;;;;;;7.03;1.02;;;17.70;94.50;;;;;;5050172;28;20407;-77
2022/03/22 09:47:37;;;;;;;1.05;0.85;;;18.70;93.50;;;;;;5049017;28;20488;-75
2022/03/22 09:50:09;;;;;;;3.83;1.35;;;18.90;93.20;;;;;;5046099;28;20100;-75
2022/03/22 09:52:36;;;;;;;0.43;0.43;;;18.60;94.00;;;;;;5050679;28;20037;-77
2022/03/22 09:55:04;;;;;;;3.03;0.77;;;17.50;94.00;;;;;;5051817;28;20028;-75
2022/03/22 09:57:29;;;;;;;0.40;0.40;;;16.40;95.50;;;;;;5052411;28;20032;-78
2022/03/22 09:59:55;;;;;;;0.68;0.65;;;16.50;95.90;;;;;;5046585;28;20025;-75
2022/03/22 10:02:32;;;;;;;0.95;0.75;;;15.90;96.10;;;;;;5050982;28;20025;-75
2022/03/22 10:04:58;;;;;;;0.43;0.43;;;15.70;96.40;;;;;;5060925;28;20021;-75
2022/03/22 10:07:24;;;;;;;0.60;0.38;;;15.80;96.50;;;;;;5058170;28;20463;-79
2022/03/22 10:10:05;;;;;;;22.38;1.98;;;15.40;97.00;;;;;;5054741;28;20102;-75
2022/03/22 10:12:35;;;;;;;2.22;0.55;;;15.70;97.30;;;;;;5060308;28;20032;-75
2022/03/22 10:15:07;;;;;;;1.30;0.77;;;16.00;96.90;;;;;;5057636;28;20020;-77
2022/03/22 10:17:32;;;;;;;0.50;0.40;;;16.00;97.30;;;;;;5046164;28;20448;-77
2022/03/22 10:19:58;;;;;;;3.72;0.40;;;16.30;97.00;;;;;;5050890;28;20044;-78
2022/03/22 10:22:25;;;;;;;1.30;1.20;;;15.70;96.70;;;;;;5043650;28;20068;-78
2022/03/22 10:24:55;;;;;;;0.95;0.55;;;15.70;97.50;;;;;;5048392;28;20036;-75
2022/03/22 10:27:27;;;;;;;12.10;0.43;;;15.20;97.90;;;;;;5050826;28;20060;-75
2022/03/22 10:29:54;;;;;;;0.75;0.38;;;15.50;97.60;;;;;;5054562;28;20028;-75
2022/03/22 10:32:39;;;;;;;1.35;0.45;;;15.90;97.80;;;;;;5048115;28;20034;-78
2022/03/22 10:35:21;;;;;;;0.90;0.45;;;16.10;97.00;;;;;;5040279;28;20460;-75
2022/03/22 10:37:55;;;;;;;0.30;0.30;;;15.50;97.50;;;;;;5043968;28;20037;-75
2022/03/22 10:40:42;;;;;;;0.60;0.60;;;15.90;97.70;;;;;;5050586;28;20521;-74
2022/03/22 10:43:08;;;;;;;1.23;0.82;;;15.50;97.40;;;;;;5038262;28;20079;-75
2022/03/22 10:45:48;;;;;;;1.00;0.38;;;15.80;97.60;;;;;;5052759;28;20037;-75
2022/03/22 10:48:17;;;;;;;0.75;0.28;;;15.90;97.40;;;;;;5048514;28;20101;-76
2022/03/22 10:50:46;;;;;;;3.65;1.13;;;15.70;97.70;;;;;;5051639;28;20047;-79
2022/03/22 10:53:20;;;;;;;1.65;0.77;;;15.70;97.00;;;;;;5044733;28;20048;-76
2022/03/22 10:55:46;;;;;;;0.55;0.55;;;15.90;97.50;;;;;;5044386;28;20041;-75
2022/03/22 10:58:14;;;;;;;2.28;0.75;;;15.80;97.50;;;;;;5046278;28;20075;-75
2022/03/22 11:00:43;;;;;;;0.55;0.43;;;15.80;97.30;;;;;;5050325;28;20333;-74
2022/03/22 11:03:10;;;;;;;0.73;0.28;;;15.50;97.50;;;;;;5050232;28;20021;-74
2022/03/22 11:05:36;;;;;;;1.45;0.40;;;15.60;98.20;;;;;;5040751;28;20025;-75
2022/03/22 11:08:02;;;;;;;1.85;0.30;;;15.60;97.70;;;;;;5044353;28;20372;-75
2022/03/22 11:10:29;;;;;;;5.18;1.05;;;16.00;98.40;;;;;;5041611;28;20025;-77
2022/03/22 11:12:59;;;;;;;0.20;0.20;;;16.20;97.10;;;;;;5048414;28;20146;-74
2022/03/22 11:15:42;;;;;;;0.28;0.10;;;16.30;97.50;;;;;;5049501;28;20500;-76
2022/03/22 11:18:09;;;;;;;3.00;0.45;;;16.20;98.00;;;;;;5053640;28;20016;-74
2022/03/22 11:20:34;;;;;;;0.10;0.10;;;15.90;97.10;;;;;;5059169;28;20033;-75
2022/03/22 11:23:01;;;;;;;3.72;1.48;;;15.70;97.80;;;;;;5051632;28;20021;-78
2022/03/22 11:25:37;;;;;;;3.65;0.40;;;15.80;97.60;;;;;;5048643;28;20491;-77
2022/03/22 11:28:08;;;;;;;0.52;0.20;;;16.10;97.70;;;;;;5040707;28;20025;-75
2022/03/22 11:30:36;;;;;;;1.05;0.20;;;16.00;97.50;;;;;;5051174;28;20037;-76
2022/03/22 11:36:15;;;;;;;0.47;0.32;;;16.20;97.70;;;;;;5049134;28;20045;-75
2022/03/22 11:38:46;;;;;;;4.38;0.73;;;16.60;98.30;;;;;;5039936;28;20099;-76
2022/03/22 11:44:18;;;;;;;0.73;0.52;;;16.90;97.70;;;;;;5037712;28;20052;-75
2022/03/22 11:46:45;;;;;;;1.23;0.73;;;16.60;96.70;;;;;;5036526;28;20033;-75
2022/03/22 11:49:22;;;;;;;0.73;0.45;;;16.40;97.20;;;;;;5041881;28;20025;-77
2022/03/22 11:51:57;;;;;;;0.10;0.10;;;16.70;98.10;;;;;;5049625;28;20026;-78
2022/03/22 11:54:26;;;;;;;1.92;1.50;;;16.80;97.10;;;;;;5056387;28;20040;-78
2022/03/22 11:56:56;;;;;;;0.15;0.15;;;16.80;96.80;;;;;;5051185;28;20024;-75
2022/03/22 11:59:23;;;;;;;0.00;0.00;;;16.50;97.10;;;;;;5051586;28;20561;-75
2022/03/22 12:02:03;;;;;;;0.45;0.25;;;16.90;97.40;;;;;;5049423;28;20396;-75
2022/03/22 12:04:41;;;;;;;3.90;0.70;;;16.80;96.80;;;;;;5056213;28;20028;-76
2022/03/22 12:07:10;;;;;;;0.52;0.32;;;16.50;97.20;;;;;;5057965;28;20056;-75
2022/03/22 12:09:41;;;;;;;0.68;0.65;;;16.70;97.90;;;;;;5052083;28;20020;-74
2022/03/22 12:12:07;;;;;;;2.88;1.33;;;16.70;97.40;;;;;;5051871;28;20029;-74
2022/03/22 12:14:34;;;;;;;0.20;0.17;;;16.70;96.80;;;;;;5060551;28;20055;-75
2022/03/22 12:17:02;;;;;;;0.00;0.00;;;16.80;97.10;;;;;;5053279;28;20033;-76
2022/03/22 12:19:30;;;;;;;0.45;0.40;;;16.90;97.20;;;;;;5053000;28;20100;-79
2022/03/22 12:21:58;;;;;;;0.20;0.20;;;17.20;96.60;;;;;;5065415;28;20013;-75
2022/03/22 12:24:27;;;;;;;0.57;0.57;;;17.30;96.40;;;;;;5040980;28;20114;-75
2022/03/22 12:26:56;;;;;;;0.47;0.47;;;17.70;96.30;;;;;;5048138;28;20452;-75
2022/03/22 12:29:22;;;;;;;6.07;0.32;;;17.80;95.90;;;;;;5045544;28;20546;-75
2022/03/22 12:31:52;;;;;;;0.47;0.47;;;17.50;96.20;;;;;;5051127;28;20035;-75
2022/03/22 12:34:18;;;;;;;0.47;0.47;;;17.60;96.50;;;;;;5053767;28;20024;-75
2022/03/22 12:36:45;;;;;;;1.40;0.73;;;17.60;96.30;;;;;;5050758;28;20098;-75
2022/03/22 12:39:11;;;;;;;8.82;0.73;;;18.10;96.30;;;;;;5049494;28;20719;-75
2022/03/22 12:41:38;;;;;;;0.75;0.50;;;18.50;95.40;;;;;;5042066;28;20530;-75
2022/03/22 12:44:05;;;;;;;1.45;0.77;;;18.10;95.70;;;;;;5049868;28;20495;-74
2022/03/22 12:46:32;;;;;;;0.40;0.40;;;17.80;95.80;;;;;;5044996;28;20032;-73
2022/03/22 12:48:57;;;;;;;11.52;0.47;;;17.50;96.10;;;;;;5048659;28;20028;-74
2022/03/22 12:51:25;;;;;;;0.50;0.50;;;17.60;95.70;;;;;;5049341;28;20112;-74
2022/03/22 12:53:54;;;;;;;0.10;0.10;;;17.70;95.40;;;;;;5052217;28;20040;-75
2022/03/22 12:56:21;;;;;;;1.95;1.38;;;17.60;95.60;;;;;;5050109;28;20017;-73
2022/03/22 12:58:49;;;;;;;0.30;0.30;;;17.60;95.90;;;;;;5047150;28;20033;-74
2022/03/22 13:01:15;;;;;;;1.77;0.95;;;17.80;95.80;;;;;;5049897;28;20025;-74
2022/03/22 13:03:42;;;;;;;0.40;0.30;;;17.50;95.90;;;;;;5049558;28;20029;-73
2022/03/22 13:06:08;;;;;;;0.85;0.70;;;17.50;96.10;;;;;;5050530;28;20585;-75
2022/03/22 13:11:30;;;;;;;1.48;0.40;;;18.30;95.70;;;;;;5046280;28;20074;-74
2022/03/22 13:16:42;;;;;;;0.17;0.17;;;17.60;95.30;;;;;;5047709;28;20031;-74
2022/03/22 13:19:09;;;;;;;2.00;0.88;;;17.70;96.00;;;;;;5048869;28;20503;-74
2022/03/22 13:21:38;;;;;;;0.30;0.30;;;18.00;95.70;;;;;;5050985;28;20016;-77
2022/03/22 13:24:03;;;;;;;3.30;1.25;;;17.70;94.50;;;;;;5048369;28;20040;-76
2022/03/22 13:26:29;;;;;;;0.22;0.22;;;18.00;95.20;;;;;;5050440;28;20025;-74
2022/03/22 13:28:55;;;;;;;0.70;0.65;;;18.10;94.30;;;;;;5055913;28;20491;-74
2022/03/22 13:31:22;;;;;;;0.88;0.88;;;17.90;94.80;;;;;;5046448;28;20495;-76
2022/03/22 13:33:55;;;;;;;0.95;0.52;;;17.80;95.60;;;;;;5051286;28;20037;-77
2022/03/22 13:36:21;;;;;;;1.95;0.50;;;17.90;95.20;;;;;;5055457;28;20021;-75
2022/03/22 13:38:51;;;;;;;0.40;0.30;;;18.30;95.50;;;;;;5060832;28;20035;-75
2022/03/22 13:41:27;;;;;;;0.80;0.63;;;18.20;94.70;;;;;;5052221;28;20495;-76